x

Capers Nearshore (cap 2) (41029) Weather Station

8:08pm - Wed 25th Apr 2018 All times are EDT. -4 hours from GMT.

  • Wind
    13mph, 18mph gusts
  • Sea Temp 66°f
  • Air Temp 67°f
  • Sea Pressure 1009.6mb
  • Capers Nearshore (cap 2)
  • Capers Nearshore (cap 2)

More Historic Weather Station data

Upgrade to MSW Pro to gain access to the past 30 days of data for over 8000 Wavebouys and Weather Stations around the globe.

Join

Comparision Forecast

View Surf forecast
   
Wed 04/25 8:08pm 13 18 mph 1009.6mb 66f 67f
7:08pm 16 20 mph 1008.9mb 65f 67f
6:08pm 18 22 mph 1008.1mb 65f 67f
5:08pm 20 27 mph 1008.2mb 66f 67f
4:08pm 20 27 mph 1008.5mb 66f 67f
3:08pm 20 27 mph 1009mb 66f 66f
2:08pm 18 27 mph 1009.4mb 66f 66f
1:08pm 16 22 mph 1009.8mb 66f 66f
12:08pm 18 22 mph 1010mb 65f 65f
11:08am 16 18 mph 1010mb 65f 65f
10:08am 11 16 mph 1010.2mb 65f 65f
9:08am 11 13 mph 1010.4mb 65f 65f
8:08am 11 16 mph 1010.3mb 65f 65f
7:08am 16 20 mph 1009.4mb 64f 65f
6:08am 16 20 mph 1008.8mb 64f 65f
5:08am 16 20 mph 1008.7mb 64f 66f
4:08am 11 16 mph 1008.7mb 64f 66f
3:08am 11 16 mph 1008.9mb 64f 66f
2:08am 11 16 mph 1009.3mb 64f 66f
1:08am 9 11 mph 1010.2mb 64f 65f
12:08am 9 13 mph 1010.4mb 64f 65f
Tue 04/24 11:08pm 16 20 mph 1010.5mb 64f 66f
10:08pm 20 27 mph 1009.9mb 64f 66f
9:08pm 18 25 mph 1009.5mb 64f 67f
8:08pm 13 18 mph 1009mb 64f 66f
7:08pm 13 20 mph 1008.5mb 64f 66f
6:08pm 16 20 mph 1008.4mb 64f 66f
5:08pm 13 18 mph 1008.4mb 64f 65f
4:08pm 16 20 mph 1008.6mb 64f 65f
3:08pm 16 20 mph 1009.2mb 64f 65f
2:08pm 16 20 mph 1009.6mb 64f 65f
1:08pm 13 18 mph 1010.1mb 64f 65f
12:08pm 9 13 mph 1010.7mb 65f 65f
11:08am 9 13 mph 1011.1mb 64f 65f
10:08am 7 11 mph 1011.2mb 64f 65f
9:08am 4 9 mph 1010.8mb - 65f
8:08am 11 16 mph 1010.7mb 63f 66f
7:08am 4 7 mph 1010.1mb - 66f
6:08am 2 9 mph 1009.9mb 63f 67f
5:08am 4 9 mph 1010mb 63f 66f
4:08am 11 16 mph 1009.8mb 63f 66f
3:08am 13 25 mph 1010.3mb - 65f
2:08am 18 27 mph 1011mb 63f 66f
1:08am 29 43 mph 1011.1mb 63f 66f
12:08am 27 43 mph 1011.2mb 63f 65f
Mon 04/23 11:08pm 22 38 mph 1013.4mb 64f 65f
10:08pm 27 43 mph 1013.6mb - 65f
9:08pm 31 47 mph 1014.6mb 63f 65f
8:08pm 29 43 mph 1015.1mb - 65f
7:08pm 31 45 mph 1015.1mb - 66f
6:08pm 27 40 mph 1015.6mb 63f 65f
5:08pm 25 34 mph 1016.8mb 63f 65f
4:08pm 25 34 mph 1016.9mb 63f 65f
3:08pm 25 34 mph 1017.8mb 63f 65f
2:08pm 25 36 mph 1018.5mb 63f 66f
1:08pm 25 31 mph 1018.7mb 63f 65f
12:08pm 25 31 mph 1019.6mb 63f 65f
11:08am 22 31 mph 1019.9mb 64f 66f
10:08am 18 25 mph 1020.1mb 64f 65f
9:08am 18 27 mph 1019.8mb 64f 66f
8:08am 20
mph
1020.2mb 64f 66f
7:08am 13 20 mph 1021.6mb 64f 66f
6:08am 16 20 mph 1020.6mb 64f 66f
5:08am 18 25 mph 1020.7mb 64f 65f
4:08am 16 20 mph 1021.3mb 64f 65f
3:08am 16 20 mph 1021.7mb 64f 66f
2:08am 16 22 mph 1022.1mb 64f 66f
1:08am 18 25 mph 1022.7mb 64f 65f
12:08am 18 25 mph 1023.6mb 64f 65f
Sun 04/22 11:08pm 20 27 mph 1024.1mb 64f 65f
9:08pm 18 25 mph 1024.7mb 64f 65f
8:08pm 18 25 mph 1024.1mb 64f 65f
7:08pm 16 20 mph 1023.8mb 64f 65f
6:08pm 13 20 mph 1023.6mb 64f 65f
5:08pm 13 18 mph 1024.2mb 64f 65f
4:08pm 13 18 mph 1024.4mb 64f 65f
3:08pm 13 18 mph 1024.7mb 64f 65f
2:08pm 13 16 mph 1025.6mb 64f 65f
1:08pm 7 11 mph 1026.2mb 63f 65f
12:08pm 11 16 mph 1026.3mb 63f 65f
11:08am 13 18 mph 1026.2mb 63f 65f
10:08am 11 16 mph 1026.5mb 63f 64f
9:08am 11 16 mph 1027mb 63f 64f
8:08am 13 18 mph 1026.4mb 63f 64f
7:08am 13 16 mph 1025.9mb 63f 64f
6:08am 16 22 mph 1025.1mb 63f 63f
5:08am 13 18 mph 1025.2mb 63f 64f
4:08am 13 20 mph 1025.2mb 63f 64f
3:08am 13 18 mph 1025.3mb 63f 64f
2:08am 13 20 mph 1025.8mb 63f 64f